KPAH/PAH METAR and TAF weather

Enter ICAO airport designator
Station Type Date Time Source
KPAH METAR 2021/09/20 04:53 UTC NOAA

KPAH 200453Z AUTO 15006KT 10SM BKN007 OVC110 22/21 A2997 RMK AO2 SLP144 T02220206 $


Station Type Date Time Source
KPAH Decoded METAR 2021/09/20 04:53 UTC NOAA

BARKLEY REGIONAL AIRPORT, KY, United States (KPAH) 37-03N 088-46W 118M
Sep 20, 2021 - 12:53 AM EDT / 2021.09.20 0453 UTC
Wind: from the SSE (150 degrees) at 7 MPH (6 KT):0
Visibility: 10 mile(s):0
Sky conditions: overcast
Temperature: 72.0 F (22.2 C)
Dew Point: 69.1 F (20.6 C)
Relative Humidity: 90%
Pressure (altimeter): 29.97 in. Hg (1014 hPa)
ob: KPAH 200453Z AUTO 15006KT 10SM BKN007 OVC110 22/21 A2997 RMK AO2 SLP144 T02220206
cycle: 5

Station Type Date Time Source
KPAH TAF 2021/09/20 06:22 UTC NOAA

TAF KPAH 200520Z 2006/2106 14006KT P6SM BKN007
FM200900 14006KT 3SM BR BCFG OVC003
FM201400 16007KT P6SM VCSH BKN015
FM201800 17008KT P6SM VCTS BKN025CB
FM210000 14007KT P6SM BKN035

Example: see airport list